createdAt,value
2019-04-16T00:01:45.373Z,100982.35
2019-04-16T00:12:45.761Z,100959.33
2019-04-16T00:17:48.174Z,100953.86
2019-04-16T00:22:56.848Z,100945.27
2019-04-16T00:28:00.197Z,100944.05
2019-04-16T00:33:03.985Z,100938.97
2019-04-16T00:38:06.050Z,100934.94
2019-04-16T00:43:07.970Z,100928.02
2019-04-16T00:48:09.859Z,100932.17
2019-04-16T00:53:11.935Z,100929.63
2019-04-16T00:58:13.907Z,100931.47
2019-04-16T01:03:15.784Z,100932.39
2019-04-16T01:08:17.741Z,100928.15
2019-04-16T01:13:21.691Z,100932.73
2019-04-16T01:18:23.430Z,100928.15
2019-04-16T01:23:25.453Z,100927.95
2019-04-16T01:28:32.026Z,100926.45
2019-04-16T01:33:43.397Z,100922.98
2019-04-16T01:39:15.176Z,100922.61
2019-04-16T01:44:05.481Z,100918.40
2019-04-16T01:49:10.451Z,100917.11
2019-04-16T01:54:11.271Z,100915.08
2019-04-16T01:59:13.371Z,100915.78
2019-04-16T02:04:19.554Z,100919.81
2019-04-16T02:09:22.709Z,100917.38
2019-04-16T02:14:23.095Z,100920.03
2019-04-16T02:19:26.176Z,100922.38
2019-04-16T02:24:28.080Z,100921.67
2019-04-16T02:29:30.699Z,100917.35
2019-04-16T02:34:32.654Z,100919.72
2019-04-16T02:39:47.703Z,100920.98
2019-04-16T02:44:38.486Z,100924.00
2019-04-16T02:49:40.410Z,100923.31
2019-04-16T02:55:13.872Z,100919.33
2019-04-16T03:00:32.364Z,100915.63
2019-04-16T03:05:36.630Z,100908.70
2019-04-16T03:10:38.669Z,100915.07
2019-04-16T03:15:50.199Z,100912.98
2019-04-16T03:20:52.496Z,100907.67
2019-04-16T03:25:56.214Z,100905.72
2019-04-16T03:30:58.194Z,100899.55
2019-04-16T03:36:00.126Z,100906.62
2019-04-16T03:41:02.068Z,100904.09
2019-04-16T03:46:04.049Z,100901.50
2019-04-16T03:51:05.980Z,100909.19
2019-04-16T03:56:07.984Z,100903.88
2019-04-16T04:01:09.975Z,100904.28
2019-04-16T04:06:12.910Z,100904.97
2019-04-16T04:11:15.113Z,100904.95
2019-04-16T04:16:16.999Z,100906.60
2019-04-16T04:21:22.320Z,100908.95
2019-04-16T04:26:22.785Z,100913.89
2019-04-16T04:31:24.694Z,100909.14
2019-04-16T04:36:28.387Z,100918.14
2019-04-16T04:41:30.617Z,100914.69
2019-04-16T04:46:32.596Z,100909.41
2019-04-16T04:51:36.863Z,100910.34
2019-04-16T04:56:38.343Z,100908.89
2019-04-16T05:01:42.041Z,100906.73
2019-04-16T05:06:44.566Z,100903.85
2019-04-16T05:11:48.363Z,100904.89
2019-04-16T05:16:50.270Z,100904.89
2019-04-16T05:21:52.363Z,100903.55
2019-04-16T05:26:56.314Z,100917.22
2019-04-16T05:31:58.394Z,100917.01
2019-04-16T05:37:00.592Z,100922.41
2019-04-16T05:42:02.609Z,100921.77
2019-04-16T05:47:04.605Z,100921.97
2019-04-16T05:52:06.594Z,100921.00
2019-04-16T05:57:09.884Z,100927.06
2019-04-16T06:02:19.906Z,100928.08
2019-04-16T06:07:22.144Z,100928.73
2019-04-16T06:12:27.053Z,100927.84
2019-04-16T06:18:02.509Z,100933.47
2019-04-16T06:23:20.804Z,100934.52
2019-04-16T06:34:31.730Z,100930.84
2019-04-16T06:39:43.726Z,100934.30
2019-04-16T06:44:50.953Z,100925.01
2019-04-16T06:50:12.573Z,100934.00
2019-04-16T06:55:36.973Z,100928.55
2019-04-16T07:00:48.574Z,100921.75
2019-04-16T07:06:09.536Z,100919.88
2019-04-16T07:11:11.567Z,100919.25
2019-04-16T07:16:13.644Z,100921.77
2019-04-16T07:21:17.520Z,100928.22
2019-04-16T07:26:19.529Z,100929.75
2019-04-16T07:31:34.233Z,100928.86
2019-04-16T07:37:00.955Z,100921.59
2019-04-16T07:42:12.107Z,100922.95
2019-04-16T07:47:32.025Z,100921.48
2019-04-16T07:52:51.073Z,100920.06
2019-04-16T07:57:52.970Z,100919.48
2019-04-16T08:02:54.920Z,100917.30
2019-04-16T08:07:57.652Z,100913.30
2019-04-16T08:13:09.911Z,100917.91
2019-04-16T08:18:12.047Z,100911.70
2019-04-16T08:23:31.706Z,100911.69
2019-04-16T08:28:33.651Z,100911.60
2019-04-16T08:33:35.641Z,100903.97
2019-04-16T08:38:37.586Z,100909.86
2019-04-16T08:43:39.492Z,100905.74
2019-04-16T08:48:41.391Z,100908.86
2019-04-16T08:53:46.783Z,100898.00
2019-04-16T08:58:48.233Z,100901.92
2019-04-16T09:03:50.153Z,100908.35
2019-04-16T09:09:15.531Z,100903.17
2019-04-16T09:14:16.759Z,100902.34
2019-04-16T09:19:19.981Z,100902.38
2019-04-16T09:24:29.363Z,100900.58
2019-04-16T09:29:41.591Z,100899.91
2019-04-16T09:35:09.807Z,100896.02
2019-04-16T09:40:24.562Z,100892.62
2019-04-16T09:45:26.803Z,100897.80
2019-04-16T09:50:28.674Z,100896.95
2019-04-16T09:55:30.623Z,100893.15
2019-04-16T10:00:33.971Z,100889.09
2019-04-16T10:05:36.042Z,100892.70
2019-04-16T10:10:38.099Z,100885.08
2019-04-16T10:15:40.100Z,100886.55
2019-04-16T10:20:41.970Z,100885.13
2019-04-16T10:25:43.864Z,100879.48
2019-04-16T10:30:49.053Z,100884.94
2019-04-16T10:35:51.118Z,100875.21
2019-04-16T10:41:00.020Z,100874.81
2019-04-16T10:46:20.146Z,100871.39
2019-04-16T10:51:41.761Z,100869.95
2019-04-16T10:57:02.532Z,100860.83
2019-04-16T11:02:24.981Z,100856.34
2019-04-16T11:07:28.162Z,100864.53
2019-04-16T11:12:30.143Z,100850.41
2019-04-16T11:17:32.249Z,100844.69
2019-04-16T11:22:34.172Z,100844.41
2019-04-16T11:27:36.043Z,100850.31
2019-04-16T11:32:39.908Z,100843.47
2019-04-16T11:37:44.485Z,100839.44
2019-04-16T11:42:46.817Z,100833.27
2019-04-16T11:47:48.720Z,100831.55
2019-04-16T11:52:50.733Z,100833.09
2019-04-16T11:57:54.014Z,100827.95
2019-04-16T12:03:34.899Z,100835.66
2019-04-16T12:09:02.911Z,100833.36
2019-04-16T12:14:30.789Z,100833.08
2019-04-16T12:19:44.963Z,100831.66
2019-04-16T12:25:21.621Z,100823.27
2019-04-16T12:30:40.309Z,100813.44
2019-04-16T12:35:45.857Z,100819.70
2019-04-16T12:41:07.991Z,100821.97
2019-04-16T12:46:17.769Z,100815.61
2019-04-16T12:57:10.652Z,100814.59
2019-04-16T13:02:23.793Z,100813.09
2019-04-16T13:07:33.456Z,100807.78
2019-04-16T13:12:55.116Z,100803.36
2019-04-16T13:18:25.593Z,100808.20
2019-04-16T13:23:34.149Z,100793.98
2019-04-16T13:28:37.194Z,100799.09
2019-04-16T13:33:39.173Z,100792.19
2019-04-16T13:38:45.113Z,100785.59
2019-04-16T13:43:51.191Z,100781.67
2019-04-16T13:49:01.227Z,100774.29
2019-04-16T13:54:27.739Z,100778.20
2019-04-16T14:00:02.980Z,100782.37
2019-04-16T14:05:04.601Z,100777.17
2019-04-16T14:10:05.698Z,100769.78
2019-04-16T14:15:08.266Z,100778.61
2019-04-16T14:20:12.279Z,100783.50
2019-04-16T14:25:14.785Z,100780.92
2019-04-16T14:30:19.630Z,100789.16
2019-04-16T14:35:33.306Z,100781.56
2019-04-16T14:40:31.180Z,100775.83
2019-04-16T14:45:57.534Z,100782.54
2019-04-16T14:50:51.463Z,100783.41
2019-04-16T14:56:00.585Z,100776.30
2019-04-16T15:01:22.264Z,100779.66
2019-04-16T15:06:45.494Z,100786.50
2019-04-16T15:12:07.940Z,100783.83
2019-04-16T15:17:19.520Z,100784.36
2019-04-16T15:22:40.357Z,100781.48
2019-04-16T15:27:55.901Z,100789.64
2019-04-16T15:33:16.517Z,100788.57
2019-04-16T15:38:29.705Z,100789.22
2019-04-16T15:43:40.394Z,100792.33
2019-04-16T15:49:04.939Z,100789.09
2019-04-16T15:54:29.264Z,100786.41
2019-04-16T15:59:37.643Z,100791.45
2019-04-16T16:05:02.135Z,100795.56
2019-04-16T16:10:17.203Z,100789.73
2019-04-16T16:15:19.140Z,100790.09
2019-04-16T16:20:21.145Z,100794.42
2019-04-16T16:25:23.193Z,100799.56
2019-04-16T16:30:25.229Z,100809.29
2019-04-16T16:35:27.145Z,100803.70
2019-04-16T16:40:29.236Z,100807.73
2019-04-16T16:45:59.528Z,100802.98
2019-04-16T16:51:01.551Z,100815.67
2019-04-16T16:56:13.622Z,100821.16
2019-04-16T17:01:37.920Z,100822.27
2019-04-16T17:06:39.849Z,100815.88
2019-04-16T17:11:43.309Z,100817.02
2019-04-16T17:16:45.752Z,100824.55
2019-04-16T17:21:47.717Z,100823.48
2019-04-16T17:26:50.221Z,100819.87
2019-04-16T17:31:53.538Z,100818.91
2019-04-16T17:36:55.691Z,100820.34
2019-04-16T17:42:05.344Z,100832.41
2019-04-16T17:47:32.112Z,100832.30
2019-04-16T17:52:30.893Z,100839.88
2019-04-16T17:58:03.997Z,100848.56
2019-04-16T18:03:24.471Z,100860.53
2019-04-16T18:08:46.021Z,100864.37
2019-04-16T18:14:19.367Z,100873.41
2019-04-16T18:19:39.064Z,100867.26
2019-04-16T18:25:05.196Z,100872.70
2019-04-16T18:30:29.787Z,100882.89
2019-04-16T18:35:36.294Z,100893.09
2019-04-16T18:40:56.233Z,100896.66
2019-04-16T18:46:17.986Z,100901.16
2019-04-16T18:51:19.959Z,100905.61
2019-04-16T18:56:22.219Z,100914.64
2019-04-16T19:01:29.562Z,100921.40
2019-04-16T19:06:31.009Z,100930.05
2019-04-16T19:11:32.909Z,100946.28
2019-04-16T19:16:35.242Z,100947.28
2019-04-16T19:21:37.167Z,100952.68
2019-04-16T19:26:39.138Z,100968.34
2019-04-16T19:31:41.062Z,100969.14
2019-04-16T19:36:42.956Z,100972.20
2019-04-16T19:41:44.882Z,100975.14
2019-04-16T19:46:52.441Z,100976.77
2019-04-16T19:51:50.960Z,100974.80
2019-04-16T19:56:53.172Z,100982.41
2019-04-16T20:01:59.551Z,100983.69
2019-04-16T20:07:01.413Z,100990.42
2019-04-16T20:12:03.748Z,100986.31
2019-04-16T20:17:05.856Z,100992.69
2019-04-16T20:22:07.786Z,100996.50
2019-04-16T20:27:09.644Z,101002.20
2019-04-16T20:32:11.666Z,101004.08
2019-04-16T20:37:13.641Z,101003.95
2019-04-16T20:42:15.649Z,101010.23
2019-04-16T20:47:17.659Z,101005.97
2019-04-16T20:52:19.679Z,101005.70
2019-04-16T20:57:25.311Z,101018.86
2019-04-16T21:02:28.396Z,101018.11
2019-04-16T21:07:30.269Z,101015.07
2019-04-16T21:12:32.397Z,101026.46
2019-04-16T21:17:38.021Z,101029.30
2019-04-16T21:22:38.396Z,101025.92
2019-04-16T21:27:52.350Z,101031.08
2019-04-16T21:33:12.210Z,101034.56
2019-04-16T21:38:21.576Z,101046.34
2019-04-16T21:43:23.494Z,101045.38
2019-04-16T21:48:27.074Z,101046.27
2019-04-16T21:53:29.456Z,101047.83
2019-04-16T21:58:32.457Z,101044.80
2019-04-16T22:03:34.633Z,101046.50
2019-04-16T22:08:36.644Z,101050.18
2019-04-16T22:13:38.542Z,101052.21
2019-04-16T22:18:41.424Z,101053.36
2019-04-16T22:23:44.174Z,101057.45
2019-04-16T22:28:46.301Z,101063.30
2019-04-16T22:33:48.182Z,101064.35
2019-04-16T22:38:55.004Z,101065.55
2019-04-16T22:44:18.548Z,101060.81
2019-04-16T22:49:22.301Z,101066.34
2019-04-16T22:54:25.331Z,101064.82
2019-04-16T22:59:27.229Z,101073.16
2019-04-16T23:04:29.101Z,101069.61
2019-04-16T23:09:31.044Z,101066.09
2019-04-16T23:14:34.914Z,101078.63
2019-04-16T23:19:37.133Z,101075.95
2019-04-16T23:24:39.080Z,101076.34
2019-04-16T23:29:40.974Z,101076.95
2019-04-16T23:34:42.838Z,101078.17
2019-04-16T23:39:44.780Z,101081.63
2019-04-16T23:45:12.282Z,101077.72
2019-04-16T23:50:44.893Z,101080.00
2019-04-16T23:55:56.371Z,101080.77
